createdAt,value
2022-08-12T00:04:54.603Z,49.00
2022-08-12T00:10:16.856Z,49.20
2022-08-12T00:15:39.426Z,49.20
2022-08-12T00:21:02.308Z,49.10
2022-08-12T00:26:24.745Z,49.30
2022-08-12T00:31:47.079Z,49.50
2022-08-12T00:37:14.895Z,49.40
2022-08-12T00:42:19.668Z,49.50
2022-08-12T00:47:25.467Z,49.60
2022-08-12T00:52:28.324Z,49.70
2022-08-12T00:57:37.076Z,49.80
2022-08-12T01:02:46.121Z,49.90
2022-08-12T01:08:09.755Z,49.90
2022-08-12T01:13:19.288Z,50.30
2022-08-12T01:18:25.030Z,50.30
2022-08-12T01:24:29.465Z,50.40
2022-08-12T01:29:33.147Z,50.50
2022-08-12T01:34:38.587Z,50.60
2022-08-12T01:40:31.677Z,50.70
2022-08-12T01:45:04.503Z,50.80
2022-08-12T01:50:27.338Z,50.80
2022-08-12T01:55:33.556Z,51.00
2022-08-12T02:00:54.918Z,51.80
2022-08-12T02:06:42.503Z,51.80
2022-08-12T02:11:59.479Z,51.50
2022-08-12T02:17:54.500Z,51.50
2022-08-12T02:22:47.389Z,51.50
2022-08-12T02:27:51.983Z,51.70
2022-08-12T02:32:56.484Z,51.60
2022-08-12T02:38:01.298Z,51.90
2022-08-12T02:43:05.932Z,52.20
2022-08-12T02:48:10.627Z,53.20
2022-08-12T02:53:13.788Z,53.40
2022-08-12T02:58:16.743Z,52.90
2022-08-12T03:03:27.162Z,53.10
2022-08-12T03:08:35.040Z,53.40
2022-08-12T03:13:42.423Z,53.80
2022-08-12T03:18:46.147Z,53.80
2022-08-12T03:23:48.952Z,53.70
2022-08-12T03:28:54.312Z,54.40
2022-08-12T03:34:03.052Z,54.20
2022-08-12T03:39:36.424Z,54.70
2022-08-12T03:45:14.730Z,55.10
2022-08-12T03:50:37.748Z,55.30
2022-08-12T03:56:00.475Z,55.50
2022-08-12T04:01:02.844Z,55.40
2022-08-12T04:06:05.427Z,55.60
2022-08-12T04:11:32.059Z,56.00
2022-08-12T04:16:35.999Z,55.80
2022-08-12T04:21:42.032Z,56.00
2022-08-12T04:26:46.409Z,56.20
2022-08-12T04:31:50.683Z,56.00
2022-08-12T04:36:53.939Z,55.80
2022-08-12T04:42:00.244Z,55.80
2022-08-12T04:47:02.552Z,55.80
2022-08-12T04:52:05.489Z,56.10
2022-08-12T04:57:09.879Z,56.00
2022-08-12T05:02:16.935Z,56.30
2022-08-12T05:07:23.474Z,56.10
2022-08-12T05:12:28.560Z,56.00
2022-08-12T05:17:30.843Z,56.10
2022-08-12T05:22:37.130Z,56.20
2022-08-12T05:27:40.398Z,56.80
2022-08-12T05:33:06.811Z,56.80
2022-08-12T05:38:29.841Z,56.90
2022-08-12T05:43:34.445Z,57.10
2022-08-12T05:48:36.717Z,57.60
2022-08-12T05:53:40.986Z,58.30
2022-08-12T05:58:43.258Z,58.80
2022-08-12T06:03:46.050Z,58.80
2022-08-12T06:08:53.622Z,58.80
2022-08-12T06:13:58.523Z,58.90
2022-08-12T06:19:01.296Z,58.70
2022-08-12T06:24:04.444Z,59.10
2022-08-12T06:29:06.896Z,58.50
2022-08-12T06:35:23.226Z,58.60
2022-08-12T06:39:33.361Z,59.10
2022-08-12T06:44:35.693Z,59.00
2022-08-12T06:49:38.007Z,59.10
2022-08-12T06:54:42.914Z,59.10
2022-08-12T06:59:45.166Z,58.30
2022-08-12T07:04:48.212Z,58.40
2022-08-12T07:10:00.034Z,60.70
2022-08-12T07:15:08.447Z,62.80
2022-08-12T07:20:51.350Z,60.10
2022-08-12T07:25:37.902Z,57.20
2022-08-12T07:30:46.232Z,55.00
2022-08-12T07:35:51.154Z,51.60
2022-08-12T07:40:58.176Z,50.60
2022-08-12T07:46:00.865Z,51.20
2022-08-12T07:51:04.309Z,50.90
2022-08-12T07:56:10.055Z,50.60
2022-08-12T08:01:15.989Z,49.00
2022-08-12T08:06:19.252Z,49.80
2022-08-12T08:11:43.674Z,50.30
2022-08-12T08:16:46.457Z,50.30
2022-08-12T08:21:48.770Z,48.80
2022-08-12T08:26:54.069Z,49.80
2022-08-12T08:32:00.494Z,49.30
2022-08-12T08:37:03.989Z,50.20
2022-08-12T08:42:29.887Z,50.80
2022-08-12T08:47:32.178Z,51.20
2022-08-12T08:52:39.749Z,51.10
2022-08-12T08:58:03.323Z,51.70
2022-08-12T09:04:21.545Z,52.50
2022-08-12T09:08:30.039Z,52.00
2022-08-12T09:14:10.961Z,52.10
2022-08-12T09:18:57.079Z,53.10
2022-08-12T09:24:05.794Z,53.60
2022-08-12T09:29:12.427Z,53.40
2022-08-12T09:34:29.456Z,54.30
2022-08-12T09:40:02.544Z,54.80
2022-08-12T09:45:23.636Z,55.20
2022-08-12T09:50:27.263Z,54.80
2022-08-12T09:56:56.694Z,55.50
2022-08-12T10:00:54.560Z,57.10
2022-08-12T10:06:27.602Z,57.00
2022-08-12T10:11:41.369Z,56.60
2022-08-12T10:17:01.668Z,57.40
2022-08-12T10:22:06.682Z,57.50
2022-08-12T10:28:04.537Z,57.10
2022-08-12T10:33:02.526Z,58.30
2022-08-12T10:38:35.029Z,57.40
2022-08-12T10:43:55.582Z,59.10
2022-08-12T10:49:07.061Z,58.00
2022-08-12T10:54:26.877Z,58.10
2022-08-12T11:00:01.442Z,58.50
2022-08-12T11:04:59.103Z,58.70
2022-08-12T11:10:20.902Z,60.40
2022-08-12T11:16:02.676Z,59.70
2022-08-12T11:20:52.093Z,59.70
2022-08-12T11:25:57.733Z,61.00
2022-08-12T11:31:01.593Z,60.80
2022-08-12T11:36:15.644Z,61.70
2022-08-12T11:41:31.862Z,61.10
2022-08-12T11:46:37.100Z,61.70
2022-08-12T11:51:40.058Z,62.10
2022-08-12T11:56:44.811Z,61.30
2022-08-12T12:02:05.197Z,62.00
2022-08-12T12:07:11.359Z,63.70
2022-08-12T12:12:14.915Z,64.70
2022-08-12T12:17:17.763Z,64.60
2022-08-12T12:22:26.796Z,64.70
2022-08-12T12:28:05.984Z,65.50
2022-08-12T12:33:10.368Z,65.20
2022-08-12T12:38:20.144Z,65.40
2022-08-12T12:43:29.063Z,66.00
2022-08-12T12:48:45.496Z,65.80
2022-08-12T12:54:06.210Z,65.50
2022-08-12T12:59:55.810Z,66.30
2022-08-12T13:04:34.948Z,67.10
2022-08-12T13:09:37.546Z,67.40
2022-08-12T13:14:40.370Z,67.50
2022-08-12T13:19:45.378Z,67.20
2022-08-12T13:24:56.056Z,67.30
2022-08-12T13:30:03.795Z,68.50
2022-08-12T13:35:20.229Z,68.40
2022-08-12T13:40:31.779Z,67.30
2022-08-12T13:45:35.686Z,68.00
2022-08-12T13:50:41.055Z,68.50
2022-08-12T13:55:45.994Z,68.30
2022-08-12T14:00:52.287Z,68.40
2022-08-12T14:05:59.491Z,68.10
2022-08-12T14:11:02.427Z,68.30
2022-08-12T14:16:11.028Z,68.50
2022-08-12T14:21:18.202Z,68.80
2022-08-12T14:26:25.399Z,69.30
2022-08-12T14:31:31.495Z,68.30
2022-08-12T14:36:34.513Z,68.50
2022-08-12T14:41:48.299Z,68.30
2022-08-12T14:46:56.998Z,68.90
2022-08-12T14:52:44.147Z,68.60
2022-08-12T14:57:24.619Z,68.00
2022-08-12T15:02:38.213Z,67.50
2022-08-12T15:07:49.020Z,67.80
2022-08-12T15:12:58.230Z,67.80
2022-08-12T15:18:02.031Z,68.70
2022-08-12T15:23:17.446Z,68.50
2022-08-12T15:28:27.149Z,67.90
2022-08-12T15:33:45.268Z,67.50
2022-08-12T15:38:49.995Z,68.20
2022-08-12T15:44:36.637Z,67.40
2022-08-12T15:49:19.229Z,67.30
2022-08-12T15:54:33.221Z,66.90
2022-08-12T16:00:00.409Z,67.50
2022-08-12T16:05:01.268Z,67.30
2022-08-12T16:10:08.507Z,67.10
2022-08-12T16:15:13.653Z,67.80
2022-08-12T16:20:21.811Z,67.20
2022-08-12T16:26:02.975Z,67.20
2022-08-12T16:30:54.019Z,67.90
2022-08-12T16:35:56.297Z,67.20
2022-08-12T16:40:58.820Z,67.70
2022-08-12T16:46:31.130Z,67.80
2022-08-12T16:51:26.983Z,66.90
2022-08-12T16:56:29.383Z,67.00
2022-08-12T17:01:36.763Z,67.00
2022-08-12T17:06:43.368Z,67.00
2022-08-12T17:11:49.231Z,67.10
2022-08-12T17:16:55.149Z,66.70
2022-08-12T17:22:02.202Z,66.80
2022-08-12T17:27:15.994Z,66.70
2022-08-12T17:32:25.630Z,66.20
2022-08-12T17:37:33.933Z,66.10
2022-08-12T17:42:38.446Z,66.20
2022-08-12T17:47:41.814Z,66.00
2022-08-12T17:52:45.223Z,65.80
2022-08-12T17:57:55.620Z,65.70
2022-08-12T18:02:59.872Z,65.60
2022-08-12T18:08:05.727Z,65.50
2022-08-12T18:13:13.018Z,65.40
2022-08-12T18:18:35.890Z,65.40
2022-08-12T18:23:50.711Z,65.30
2022-08-12T18:28:57.092Z,65.40
2022-08-12T18:34:03.116Z,65.40
2022-08-12T18:39:07.464Z,65.50
2022-08-12T18:44:12.276Z,65.30
2022-08-12T18:49:23.750Z,65.30
2022-08-12T18:54:35.200Z,65.40
2022-08-12T19:00:00.165Z,65.40
2022-08-12T19:05:09.994Z,65.40
2022-08-12T19:10:13.823Z,65.50
2022-08-12T19:15:16.141Z,65.60
2022-08-12T19:20:21.127Z,65.60
2022-08-12T19:25:59.693Z,65.50
2022-08-12T19:31:09.918Z,65.70
2022-08-12T19:36:25.395Z,65.90
2022-08-12T19:41:42.575Z,65.90
2022-08-12T19:46:53.291Z,66.30
2022-08-12T19:51:55.751Z,66.00
2022-08-12T19:56:59.369Z,66.30
2022-08-12T20:02:07.581Z,66.30
2022-08-12T20:07:23.092Z,66.60
2022-08-12T20:12:32.888Z,66.50
2022-08-12T20:17:51.062Z,66.60
2022-08-12T20:22:53.887Z,66.60
2022-08-12T20:28:04.252Z,66.10
2022-08-12T20:33:17.548Z,66.00
2022-08-12T20:38:26.335Z,65.60
2022-08-12T20:43:33.712Z,65.30
2022-08-12T20:48:36.058Z,65.30
2022-08-12T20:53:54.154Z,64.70
2022-08-12T20:59:09.643Z,64.20
2022-08-12T21:04:32.937Z,63.80
2022-08-12T21:09:40.726Z,64.10
2022-08-12T21:14:53.234Z,63.40
2022-08-12T21:20:04.614Z,63.00
2022-08-12T21:25:14.397Z,62.70
2022-08-12T21:30:19.406Z,62.60
2022-08-12T21:35:22.489Z,62.40
2022-08-12T21:40:37.216Z,62.50
2022-08-12T21:46:00.013Z,62.30
2022-08-12T21:51:22.734Z,62.30
2022-08-12T21:56:34.872Z,62.40
2022-08-12T22:01:44.282Z,62.50
2022-08-12T22:06:53.645Z,62.50
2022-08-12T22:12:20.232Z,62.50
2022-08-12T22:17:49.479Z,62.30
2022-08-12T22:22:56.216Z,62.40
2022-08-12T22:28:24.596Z,62.30
2022-08-12T22:33:27.220Z,62.20
2022-08-12T22:38:30.054Z,62.20
2022-08-12T22:43:58.908Z,61.80
2022-08-12T22:49:06.700Z,62.30
2022-08-12T22:54:35.976Z,62.30
2022-08-12T22:59:55.090Z,62.10
2022-08-12T23:04:56.743Z,62.00
2022-08-12T23:09:59.010Z,62.10
2022-08-12T23:15:04.745Z,62.00
2022-08-12T23:20:07.676Z,62.00
2022-08-12T23:25:18.878Z,61.80
2022-08-12T23:30:31.850Z,61.90
2022-08-12T23:35:53.981Z,61.90
2022-08-12T23:41:01.417Z,61.90
2022-08-12T23:46:06.338Z,61.80
2022-08-12T23:51:22.275Z,61.80
2022-08-12T23:56:26.562Z,61.90
